Time;durP1;ratioP1;P1;durP2;ratioP2;P2;SDS_P1;SDS_P2;PMS_P1;PMS_P2;Temp;Humidity;BMP_temperature;BMP_pressure;BME280_temperature;BME280_humidity;BME280_pressure;Samples;Min_cycle;Max_cycle;Signal;HPM_P1;HPM_P2
2023/09/29 00:01:35;;;;;;;19.77;5.53;;;15.80;99.90;;;;;;5049522;28;20049;-77
2023/09/29 00:04:05;;;;;;;21.92;6.30;;;15.80;99.90;;;;;;5048008;28;20412;-77
2023/09/29 00:06:32;;;;;;;18.73;6.07;;;15.80;99.90;;;;;;5041612;28;21104;-77
2023/09/29 00:08:59;;;;;;;18.98;5.35;;;15.80;99.90;;;;;;5035053;28;20172;-77
2023/09/29 00:11:25;;;;;;;16.98;5.22;;;15.80;99.90;;;;;;5042258;28;20449;-77
2023/09/29 00:13:51;;;;;;;19.88;5.72;;;15.80;99.90;;;;;;5033260;28;20118;-77
2023/09/29 00:16:16;;;;;;;13.35;4.90;;;15.80;99.90;;;;;;5049237;28;20044;-77
2023/09/29 00:18:42;;;;;;;15.60;5.40;;;15.80;99.90;;;;;;5049495;28;20068;-77
2023/09/29 00:21:08;;;;;;;18.05;5.15;;;15.80;99.90;;;;;;5050790;28;20040;-78
2023/09/29 00:23:35;;;;;;;18.08;5.03;;;15.80;99.90;;;;;;5049807;28;20118;-77
2023/09/29 00:26:00;;;;;;;17.77;5.88;;;15.80;99.90;;;;;;5049615;28;20044;-77
2023/09/29 00:28:27;;;;;;;20.73;5.07;;;15.90;99.90;;;;;;5048349;28;20036;-77
2023/09/29 00:30:52;;;;;;;16.45;5.05;;;15.90;99.90;;;;;;5048356;28;20313;-77
2023/09/29 00:33:18;;;;;;;19.45;5.40;;;15.90;99.90;;;;;;5047350;28;20091;-77
2023/09/29 00:35:44;;;;;;;13.20;5.10;;;15.90;99.90;;;;;;5046874;28;20037;-77
2023/09/29 00:38:09;;;;;;;15.95;5.22;;;15.90;99.90;;;;;;5049067;28;20043;-78
2023/09/29 00:40:35;;;;;;;20.60;5.05;;;15.90;99.90;;;;;;5049245;28;20032;-78
2023/09/29 00:43:02;;;;;;;14.18;4.60;;;15.80;99.90;;;;;;5049368;28;20095;-77
2023/09/29 00:45:28;;;;;;;15.10;4.60;;;15.90;99.90;;;;;;5031600;28;20101;-77
2023/09/29 00:47:59;;;;;;;12.70;4.80;;;15.90;99.90;;;;;;5049312;28;20048;-78
2023/09/29 00:50:29;;;;;;;14.98;4.35;;;15.90;99.90;;;;;;5043800;28;20037;-77
2023/09/29 00:52:58;;;;;;;15.93;4.95;;;15.90;99.90;;;;;;5050142;28;20396;-78
2023/09/29 00:55:27;;;;;;;16.55;4.78;;;15.90;99.90;;;;;;5049151;28;20033;-78
2023/09/29 00:57:56;;;;;;;20.80;5.78;;;15.80;99.90;;;;;;5048727;28;20037;-78
2023/09/29 01:00:29;;;;;;;15.98;4.95;;;15.80;99.90;;;;;;5049089;28;20079;-78
2023/09/29 01:02:55;;;;;;;11.95;4.65;;;15.80;99.90;;;;;;5049078;28;20071;-78
2023/09/29 01:05:21;;;;;;;14.55;4.78;;;15.80;99.90;;;;;;5049926;28;20112;-78
2023/09/29 01:07:47;;;;;;;16.60;5.18;;;15.80;99.90;;;;;;5048565;28;20473;-78
2023/09/29 01:10:17;;;;;;;16.42;5.10;;;15.80;99.90;;;;;;5048034;28;20044;-77
2023/09/29 01:12:44;;;;;;;16.98;5.03;;;15.80;99.90;;;;;;5049441;28;20505;-77
2023/09/29 01:15:14;;;;;;;14.70;4.82;;;15.70;99.90;;;;;;5048687;28;20032;-78
2023/09/29 01:17:41;;;;;;;14.98;4.90;;;15.70;99.90;;;;;;5048182;28;20048;-78
2023/09/29 01:20:16;;;;;;;13.73;5.00;;;15.70;99.90;;;;;;5049442;28;20038;-77
2023/09/29 01:22:48;;;;;;;16.02;5.15;;;15.70;99.90;;;;;;5048613;28;20059;-78
2023/09/29 01:25:15;;;;;;;15.68;4.90;;;15.70;99.90;;;;;;5049172;28;20040;-78
2023/09/29 01:27:41;;;;;;;17.85;5.32;;;15.70;99.90;;;;;;5049359;28;20086;-78
2023/09/29 01:30:07;;;;;;;12.27;4.20;;;15.70;99.90;;;;;;5043868;28;20116;-77
2023/09/29 01:32:33;;;;;;;16.30;5.20;;;15.70;99.90;;;;;;5029840;28;20041;-77
2023/09/29 01:35:00;;;;;;;14.77;4.65;;;15.60;99.90;;;;;;5029675;28;20048;-77
2023/09/29 01:37:25;;;;;;;16.67;4.68;;;15.60;99.90;;;;;;5047818;28;20115;-78
2023/09/29 01:39:51;;;;;;;14.52;4.18;;;15.60;99.90;;;;;;5046392;28;20508;-78
2023/09/29 01:42:17;;;;;;;16.52;4.97;;;15.60;99.90;;;;;;5048049;28;20048;-78
2023/09/29 01:44:43;;;;;;;17.02;5.30;;;15.60;99.90;;;;;;5049078;28;20534;-77
2023/09/29 01:47:08;;;;;;;11.60;4.90;;;15.60;99.90;;;;;;5048345;28;20037;-77
2023/09/29 01:49:34;;;;;;;13.38;4.90;;;15.60;99.90;;;;;;5030272;28;20044;-78
2023/09/29 01:51:59;;;;;;;18.00;5.70;;;15.70;99.90;;;;;;5048419;28;20051;-78
2023/09/29 01:54:25;;;;;;;17.30;4.93;;;15.70;99.90;;;;;;5048503;28;20036;-78
2023/09/29 01:56:51;;;;;;;15.27;5.00;;;15.60;99.90;;;;;;5048084;28;20567;-78
2023/09/29 01:59:16;;;;;;;21.52;5.80;;;15.60;99.90;;;;;;5031821;28;20034;-78
2023/09/29 02:01:41;;;;;;;17.88;5.18;;;15.60;99.90;;;;;;5048113;28;20110;-79
2023/09/29 02:04:07;;;;;;;18.08;5.55;;;15.60;99.90;;;;;;5049439;28;20520;-77
2023/09/29 02:06:33;;;;;;;11.82;4.75;;;15.60;99.90;;;;;;5047283;28;20053;-78
2023/09/29 02:08:58;;;;;;;16.85;4.97;;;15.60;99.90;;;;;;5047539;28;20063;-78
2023/09/29 02:11:24;;;;;;;16.92;5.28;;;15.60;99.90;;;;;;5049301;28;20090;-78
2023/09/29 02:13:49;;;;;;;14.82;5.30;;;15.60;99.90;;;;;;5050490;28;20037;-77
2023/09/29 02:16:15;;;;;;;19.00;5.78;;;15.60;99.90;;;;;;5052093;28;20032;-78
2023/09/29 02:18:41;;;;;;;14.63;5.32;;;15.60;99.90;;;;;;5052894;28;20037;-78
2023/09/29 02:21:07;;;;;;;17.77;5.63;;;15.60;99.90;;;;;;5051957;28;20041;-78
2023/09/29 02:23:38;;;;;;;16.45;5.72;;;15.60;99.90;;;;;;5051045;28;20049;-78
2023/09/29 02:26:04;;;;;;;14.90;5.68;;;15.70;99.90;;;;;;5052153;28;20047;-78
2023/09/29 02:28:32;;;;;;;15.02;5.15;;;15.70;99.90;;;;;;5052054;28;20041;-78
2023/09/29 02:31:02;;;;;;;16.85;5.45;;;15.70;99.90;;;;;;5051301;28;20045;-78
2023/09/29 02:33:29;;;;;;;17.83;5.43;;;15.70;99.90;;;;;;5051665;28;20036;-78
2023/09/29 02:35:56;;;;;;;15.60;5.15;;;15.70;99.90;;;;;;5050941;28;20461;-78
2023/09/29 02:38:22;;;;;;;16.65;5.07;;;15.70;99.90;;;;;;5049887;28;20048;-78
2023/09/29 02:40:48;;;;;;;18.88;5.28;;;15.70;99.90;;;;;;5034764;28;20041;-78
2023/09/29 02:43:13;;;;;;;19.35;5.35;;;15.70;99.90;;;;;;5052667;28;20118;-78
2023/09/29 02:45:40;;;;;;;12.45;4.78;;;15.70;99.90;;;;;;5050741;28;20055;-78
2023/09/29 02:48:06;;;;;;;14.60;4.95;;;15.80;99.90;;;;;;5051104;28;20123;-78
2023/09/29 02:50:35;;;;;;;17.75;5.20;;;15.80;99.90;;;;;;5046726;28;20120;-78
2023/09/29 02:53:02;;;;;;;19.42;5.03;;;15.70;99.90;;;;;;5051488;28;20049;-78
2023/09/29 02:55:28;;;;;;;14.13;4.53;;;15.80;99.90;;;;;;5051767;28;20037;-78
2023/09/29 02:57:54;;;;;;;16.42;4.20;;;15.80;99.90;;;;;;5051061;28;20059;-78
2023/09/29 03:00:21;;;;;;;14.55;4.35;;;15.80;99.90;;;;;;5051277;28;20060;-78
2023/09/29 03:02:48;;;;;;;11.45;3.97;;;15.80;99.90;;;;;;5052395;28;20049;-78
2023/09/29 03:05:15;;;;;;;11.98;4.20;;;15.80;99.90;;;;;;5034927;28;20558;-77
2023/09/29 03:07:41;;;;;;;15.00;4.40;;;15.80;99.90;;;;;;5048018;28;20060;-78
2023/09/29 03:10:07;;;;;;;16.92;4.45;;;15.80;99.90;;;;;;5031770;28;20527;-78
2023/09/29 03:12:33;;;;;;;13.25;4.75;;;15.90;99.90;;;;;;5051164;28;20040;-78
2023/09/29 03:14:58;;;;;;;18.40;3.90;;;15.90;99.90;;;;;;5033848;28;20488;-78
2023/09/29 03:17:24;;;;;;;16.35;5.03;;;15.80;99.90;;;;;;5051184;28;20029;-78
2023/09/29 03:19:51;;;;;;;11.68;3.58;;;15.80;99.90;;;;;;5050940;28;20136;-78
2023/09/29 03:22:18;;;;;;;12.25;4.05;;;15.80;99.90;;;;;;5034226;28;20437;-78
2023/09/29 03:24:44;;;;;;;17.52;4.47;;;15.80;99.90;;;;;;5048644;28;20045;-77
2023/09/29 03:27:10;;;;;;;15.07;4.22;;;15.80;99.90;;;;;;5051482;28;20041;-77
2023/09/29 03:29:35;;;;;;;14.20;4.55;;;15.80;99.90;;;;;;5051559;28;20045;-78
2023/09/29 03:32:01;;;;;;;14.05;4.78;;;15.80;99.90;;;;;;5050798;28;20116;-78
2023/09/29 03:34:26;;;;;;;18.52;5.10;;;15.80;99.90;;;;;;5034067;28;20032;-78
2023/09/29 03:36:52;;;;;;;15.15;4.50;;;15.70;99.90;;;;;;5050583;28;20522;-77
2023/09/29 03:39:18;;;;;;;18.73;5.20;;;15.80;99.90;;;;;;5050231;28;20033;-78
2023/09/29 03:41:44;;;;;;;14.82;4.55;;;15.80;99.90;;;;;;5033286;28;20120;-78
2023/09/29 03:44:12;;;;;;;19.95;5.00;;;15.80;99.90;;;;;;5033111;28;20087;-78
2023/09/29 03:46:38;;;;;;;13.48;4.40;;;15.80;99.90;;;;;;5051412;28;20052;-78
2023/09/29 03:49:04;;;;;;;15.02;4.75;;;15.80;99.90;;;;;;5050254;28;20526;-77
2023/09/29 03:51:30;;;;;;;19.52;4.95;;;15.80;99.90;;;;;;5051089;28;20052;-77
2023/09/29 03:53:56;;;;;;;17.20;4.80;;;15.80;99.90;;;;;;5050395;28;20115;-77
2023/09/29 03:56:25;;;;;;;18.85;5.18;;;15.80;99.90;;;;;;5050267;28;20162;-78
2023/09/29 03:58:53;;;;;;;17.13;5.30;;;15.80;99.90;;;;;;5032653;28;20087;-77
2023/09/29 04:01:19;;;;;;;14.55;5.28;;;15.80;99.90;;;;;;5049486;28;20033;-78
2023/09/29 04:03:45;;;;;;;14.52;5.20;;;15.90;99.90;;;;;;5050195;28;20099;-77
2023/09/29 04:06:10;;;;;;;14.57;4.70;;;15.90;99.90;;;;;;5033467;28;20520;-77
2023/09/29 04:08:36;;;;;;;13.65;4.95;;;15.90;99.90;;;;;;5049020;28;20045;-78
2023/09/29 04:11:02;;;;;;;12.10;4.80;;;15.90;99.90;;;;;;5049405;28;20040;-77
2023/09/29 04:13:28;;;;;;;15.00;5.65;;;15.90;99.90;;;;;;5048112;28;20404;-78
2023/09/29 04:15:54;;;;;;;14.35;4.78;;;16.00;99.90;;;;;;5031437;28;20080;-78
2023/09/29 04:18:20;;;;;;;10.75;4.90;;;15.90;99.90;;;;;;5050356;28;20056;-77
2023/09/29 04:20:45;;;;;;;14.15;4.65;;;16.00;99.90;;;;;;5050066;28;20041;-77
2023/09/29 04:23:11;;;;;;;12.10;4.82;;;16.00;99.90;;;;;;5050967;28;20044;-78
2023/09/29 04:25:36;;;;;;;15.13;4.90;;;16.00;99.90;;;;;;5050130;28;20145;-78
2023/09/29 04:28:02;;;;;;;16.52;4.75;;;16.00;99.90;;;;;;5050586;28;20126;-77
2023/09/29 04:30:28;;;;;;;11.00;4.50;;;16.00;99.90;;;;;;5050024;28;20033;-77
2023/09/29 04:32:53;;;;;;;15.73;4.95;;;16.10;99.90;;;;;;5049586;28;20035;-77
2023/09/29 04:35:19;;;;;;;13.57;4.75;;;16.10;99.90;;;;;;5049175;28;20095;-77
2023/09/29 04:37:45;;;;;;;12.15;4.22;;;16.10;99.90;;;;;;5049742;28;20037;-78
2023/09/29 04:40:11;;;;;;;13.88;4.40;;;16.10;99.90;;;;;;5049603;28;20052;-79
2023/09/29 04:42:37;;;;;;;9.98;4.22;;;16.10;99.90;;;;;;5031922;28;20077;-77
2023/09/29 04:45:03;;;;;;;16.77;4.68;;;16.20;99.90;;;;;;5048758;28;20067;-77
2023/09/29 04:47:30;;;;;;;16.73;4.63;;;16.20;99.90;;;;;;5049029;28;20473;-78
2023/09/29 04:49:55;;;;;;;14.90;4.10;;;16.20;99.90;;;;;;5051290;28;20041;-78
2023/09/29 04:52:21;;;;;;;16.20;4.65;;;16.20;99.90;;;;;;5049133;28;20055;-78
2023/09/29 04:54:47;;;;;;;20.27;5.35;;;16.20;99.90;;;;;;5050430;28;20037;-77
2023/09/29 04:57:12;;;;;;;12.43;4.03;;;16.20;99.90;;;;;;5032396;28;20123;-78
2023/09/29 04:59:38;;;;;;;14.38;4.70;;;16.20;99.90;;;;;;5048225;28;20037;-78
2023/09/29 05:02:05;;;;;;;14.52;4.93;;;16.20;99.90;;;;;;5032435;28;20049;-78
2023/09/29 05:04:32;;;;;;;12.70;4.45;;;16.30;99.90;;;;;;5049846;28;20056;-77
2023/09/29 05:06:57;;;;;;;14.30;4.88;;;16.30;99.90;;;;;;5048243;28;20049;-78
2023/09/29 05:09:23;;;;;;;13.27;4.63;;;16.30;99.90;;;;;;5047849;28;20047;-77
2023/09/29 05:11:48;;;;;;;11.32;4.32;;;16.30;99.90;;;;;;5047009;28;20045;-78
2023/09/29 05:14:14;;;;;;;11.77;4.55;;;16.30;99.90;;;;;;5049321;28;20484;-78
2023/09/29 05:16:39;;;;;;;13.48;4.50;;;16.30;99.90;;;;;;5048420;28;20120;-78
2023/09/29 05:19:05;;;;;;;12.95;4.75;;;16.20;99.90;;;;;;5048298;28;20467;-78
2023/09/29 05:21:32;;;;;;;18.13;4.82;;;16.30;99.90;;;;;;5047742;28;20044;-78
2023/09/29 05:23:57;;;;;;;15.27;4.75;;;16.40;99.90;;;;;;5032730;28;20041;-78
2023/09/29 05:26:23;;;;;;;14.07;4.75;;;16.40;99.90;;;;;;5047527;28;20029;-78
2023/09/29 05:28:53;;;;;;;14.00;4.38;;;16.40;99.90;;;;;;5049622;28;20240;-78
2023/09/29 05:31:19;;;;;;;15.48;4.90;;;16.40;99.90;;;;;;5067619;28;20048;-78
2023/09/29 05:33:44;;;;;;;13.48;5.35;;;16.50;99.90;;;;;;5040546;28;20476;-78
2023/09/29 05:36:10;;;;;;;18.65;5.30;;;16.50;99.90;;;;;;5047068;28;20036;-78
2023/09/29 05:38:35;;;;;;;13.48;4.80;;;16.50;99.90;;;;;;5044235;28;20060;-78
2023/09/29 05:41:01;;;;;;;12.15;5.15;;;16.50;99.90;;;;;;5030066;28;20048;-78
2023/09/29 05:43:27;;;;;;;15.93;6.32;;;16.50;99.90;;;;;;5046903;28;20037;-80
2023/09/29 05:45:52;;;;;;;18.98;5.47;;;16.50;99.90;;;;;;5043998;28;20045;-79
2023/09/29 05:48:18;;;;;;;12.27;5.40;;;16.40;99.90;;;;;;5049436;28;20087;-79
2023/09/29 05:50:44;;;;;;;16.90;5.65;;;16.40;99.90;;;;;;5050721;28;20108;-79
2023/09/29 05:53:11;;;;;;;12.27;5.20;;;16.40;99.90;;;;;;5032798;28;20044;-79
2023/09/29 05:55:37;;;;;;;15.32;6.00;;;16.40;99.90;;;;;;5050014;28;20032;-79
2023/09/29 05:58:03;;;;;;;13.07;5.78;;;16.30;99.90;;;;;;5055134;28;20065;-79
2023/09/29 06:00:29;;;;;;;15.70;5.38;;;16.30;99.90;;;;;;5053665;28;20063;-79
2023/09/29 06:02:55;;;;;;;14.18;5.20;;;16.30;99.90;;;;;;5049306;28;20045;-79
2023/09/29 06:05:20;;;;;;;16.98;5.50;;;16.30;99.90;;;;;;5053388;28;20389;-79
2023/09/29 06:07:46;;;;;;;12.63;5.10;;;16.30;99.90;;;;;;5052588;28;20041;-80
2023/09/29 06:10:12;;;;;;;14.32;5.22;;;16.30;99.90;;;;;;5053153;28;20044;-79
2023/09/29 06:12:37;;;;;;;12.82;5.70;;;16.30;99.90;;;;;;5029731;28;20045;-79
2023/09/29 06:15:04;;;;;;;14.90;5.85;;;16.30;99.90;;;;;;5053828;28;20033;-79
2023/09/29 06:17:30;;;;;;;12.80;5.22;;;16.30;99.90;;;;;;5048168;28;20056;-80
2023/09/29 06:19:56;;;;;;;12.65;5.63;;;16.30;99.90;;;;;;5038227;28;20121;-80
2023/09/29 06:22:22;;;;;;;12.70;5.30;;;16.30;99.90;;;;;;5053828;28;20060;-81
2023/09/29 06:24:47;;;;;;;12.27;6.05;;;16.30;99.90;;;;;;5058016;28;20091;-80
2023/09/29 06:27:13;;;;;;;14.90;5.88;;;16.30;99.90;;;;;;5052887;28;20029;-79
2023/09/29 06:29:40;;;;;;;12.82;5.90;;;16.30;99.90;;;;;;5052464;28;20045;-80
2023/09/29 06:32:06;;;;;;;15.18;5.43;;;16.30;99.90;;;;;;5044884;28;20124;-80
2023/09/29 06:34:32;;;;;;;17.15;5.82;;;16.30;99.90;;;;;;5051605;28;20407;-81
2023/09/29 06:36:57;;;;;;;13.23;5.68;;;16.30;99.90;;;;;;5055452;28;20033;-80
2023/09/29 06:39:23;;;;;;;14.95;6.22;;;16.40;99.90;;;;;;5053800;28;20515;-80
2023/09/29 06:41:48;;;;;;;11.48;5.32;;;16.40;99.90;;;;;;5051946;28;20087;-80
2023/09/29 06:44:14;;;;;;;12.18;5.40;;;16.40;99.90;;;;;;5042279;28;20132;-80
2023/09/29 06:46:40;;;;;;;10.93;5.47;;;16.40;99.90;;;;;;5057656;28;20122;-80
2023/09/29 06:49:05;;;;;;;10.82;5.63;;;16.40;99.90;;;;;;5053657;28;20044;-80
2023/09/29 06:51:31;;;;;;;12.57;5.00;;;16.40;99.90;;;;;;5042141;28;20116;-80
2023/09/29 06:53:56;;;;;;;12.93;5.90;;;16.40;99.90;;;;;;5054967;28;20155;-80
2023/09/29 06:56:22;;;;;;;13.23;5.80;;;16.40;99.90;;;;;;5054875;28;20069;-81
2023/09/29 06:58:48;;;;;;;10.88;5.47;;;16.40;99.90;;;;;;5055152;28;20485;-80
2023/09/29 07:01:13;;;;;;;12.80;5.68;;;16.50;99.90;;;;;;5055464;28;20114;-81
2023/09/29 07:03:39;;;;;;;9.40;4.88;;;16.50;99.90;;;;;;5053468;28;20500;-80
2023/09/29 07:06:05;;;;;;;10.27;5.32;;;16.50;99.90;;;;;;5055965;28;20132;-81
2023/09/29 07:08:31;;;;;;;12.98;5.43;;;16.60;99.90;;;;;;5054712;28;20048;-80
2023/09/29 07:10:57;;;;;;;11.68;5.03;;;16.70;99.90;;;;;;5046072;28;20500;-80
2023/09/29 07:13:23;;;;;;;12.75;5.50;;;16.80;99.90;;;;;;5045025;28;20075;-80
2023/09/29 07:15:48;;;;;;;12.00;5.35;;;16.90;99.90;;;;;;5051076;28;20443;-80
2023/09/29 07:18:16;;;;;;;8.88;5.13;;;16.90;99.90;;;;;;5050645;28;20052;-80
2023/09/29 07:20:45;;;;;;;10.45;5.22;;;17.00;99.90;;;;;;5047037;28;20457;-79
2023/09/29 07:23:11;;;;;;;10.10;4.95;;;17.00;99.90;;;;;;5045980;28;20068;-81
2023/09/29 07:25:37;;;;;;;10.07;4.72;;;17.10;99.90;;;;;;5035001;28;20044;-78
2023/09/29 07:28:05;;;;;;;10.35;4.70;;;17.10;99.90;;;;;;5049559;28;20040;-80
2023/09/29 07:30:30;;;;;;;10.30;5.05;;;17.10;99.90;;;;;;5041286;28;20178;-80
2023/09/29 07:32:56;;;;;;;11.60;4.65;;;17.20;99.90;;;;;;5051248;28;20192;-80
2023/09/29 07:35:21;;;;;;;11.93;5.00;;;17.20;99.90;;;;;;5034211;28;20033;-79
2023/09/29 07:37:47;;;;;;;10.27;4.65;;;17.20;99.90;;;;;;5044171;28;20064;-79
2023/09/29 07:40:12;;;;;;;11.23;4.90;;;17.30;99.90;;;;;;5051276;28;20055;-79
2023/09/29 07:42:38;;;;;;;11.40;4.78;;;17.40;99.90;;;;;;5031843;28;20033;-79
2023/09/29 07:45:04;;;;;;;9.27;4.97;;;17.50;99.90;;;;;;5051562;28;20041;-80
2023/09/29 07:47:30;;;;;;;12.00;4.68;;;17.60;99.90;;;;;;5048183;28;20044;-80
2023/09/29 07:49:55;;;;;;;7.32;4.28;;;17.70;99.90;;;;;;5051423;28;20553;-80
2023/09/29 07:52:27;;;;;;;10.05;4.75;;;17.80;99.90;;;;;;5045191;28;20045;-80
2023/09/29 07:54:53;;;;;;;7.55;4.28;;;17.90;99.90;;;;;;5043829;28;20040;-80
2023/09/29 07:57:19;;;;;;;10.13;4.10;;;18.00;99.90;;;;;;5026290;28;20029;-81
2023/09/29 07:59:44;;;;;;;9.27;3.90;;;18.10;99.90;;;;;;5048201;28;20082;-80
2023/09/29 08:02:10;;;;;;;7.80;3.80;;;18.20;99.90;;;;;;5053973;28;20037;-78
2023/09/29 08:04:36;;;;;;;8.55;4.20;;;18.40;99.90;;;;;;5051123;28;20147;-79
2023/09/29 08:07:02;;;;;;;9.40;3.92;;;18.50;99.90;;;;;;5039257;28;20068;-79
2023/09/29 08:09:27;;;;;;;7.53;3.97;;;18.50;99.90;;;;;;5047621;28;20041;-80
2023/09/29 08:11:53;;;;;;;9.68;3.90;;;18.60;99.90;;;;;;5051734;28;20060;-78
2023/09/29 08:14:18;;;;;;;5.70;3.67;;;18.60;99.90;;;;;;5053519;28;20128;-79
2023/09/29 08:16:44;;;;;;;8.65;3.78;;;18.60;99.90;;;;;;5048093;28;20044;-79
2023/09/29 08:19:09;;;;;;;6.82;3.70;;;18.70;99.90;;;;;;5040280;28;20038;-79
2023/09/29 08:21:35;;;;;;;11.07;3.88;;;18.80;99.90;;;;;;5051954;28;20169;-80
2023/09/29 08:24:06;;;;;;;7.53;3.83;;;18.80;99.90;;;;;;5052902;28;20139;-79
2023/09/29 08:26:32;;;;;;;9.00;3.60;;;19.00;99.90;;;;;;5053780;28;20066;-80
2023/09/29 08:28:59;;;;;;;8.18;3.72;;;19.10;99.90;;;;;;5052559;28;20072;-79
2023/09/29 08:31:25;;;;;;;10.85;3.80;;;19.20;99.90;;;;;;5054887;28;20512;-79
2023/09/29 08:33:51;;;;;;;5.78;3.78;;;19.30;99.90;;;;;;5055026;28;20206;-80
2023/09/29 08:36:17;;;;;;;9.52;3.65;;;19.40;99.90;;;;;;5056704;28;20457;-79
2023/09/29 08:38:42;;;;;;;6.20;3.20;;;19.40;99.90;;;;;;5054689;28;20037;-79
2023/09/29 08:41:08;;;;;;;6.53;3.47;;;19.50;99.90;;;;;;5052702;28;20102;-80
2023/09/29 08:43:34;;;;;;;7.50;3.50;;;19.50;99.90;;;;;;5054411;28;20052;-78
2023/09/29 08:46:00;;;;;;;6.68;3.53;;;19.60;99.90;;;;;;5028958;28;20067;-79
2023/09/29 08:48:35;;;;;;;7.53;3.28;;;19.60;99.90;;;;;;5043647;28;20459;-80
2023/09/29 08:51:02;;;;;;;9.88;3.70;;;19.60;99.90;;;;;;5047302;28;20071;-79
2023/09/29 08:53:28;;;;;;;8.05;3.80;;;19.70;99.90;;;;;;5053276;28;20051;-79
2023/09/29 08:55:55;;;;;;;6.32;3.40;;;19.70;99.90;;;;;;5053809;28;20073;-78
2023/09/29 08:58:23;;;;;;;7.03;3.28;;;19.80;99.90;;;;;;5051083;28;20040;-80
2023/09/29 09:00:49;;;;;;;6.40;3.10;;;19.90;99.90;;;;;;5050955;28;20041;-79
2023/09/29 09:03:14;;;;;;;5.95;2.97;;;20.00;99.90;;;;;;5036502;28;20043;-79
2023/09/29 09:05:40;;;;;;;6.40;3.00;;;20.10;99.90;;;;;;5056096;28;20032;-79
2023/09/29 09:08:06;;;;;;;5.82;3.13;;;20.00;99.90;;;;;;5051562;28;20100;-79
2023/09/29 09:10:34;;;;;;;5.53;2.88;;;19.90;99.90;;;;;;5047550;28;20303;-80
2023/09/29 09:13:00;;;;;;;4.53;2.60;;;19.90;99.90;;;;;;5044526;28;20052;-80
2023/09/29 09:15:26;;;;;;;8.30;3.22;;;20.10;99.90;;;;;;5044831;28;20370;-79
2023/09/29 09:17:52;;;;;;;5.25;2.90;;;20.00;99.90;;;;;;5046217;28;20068;-79
2023/09/29 09:20:18;;;;;;;5.43;3.00;;;20.10;99.90;;;;;;5050441;28;20040;-79
2023/09/29 09:22:44;;;;;;;6.18;3.05;;;20.20;99.90;;;;;;5045543;28;20041;-80
2023/09/29 09:25:12;;;;;;;6.43;2.90;;;20.40;99.90;;;;;;5047102;28;20302;-79
2023/09/29 09:27:39;;;;;;;6.50;2.72;;;20.50;99.90;;;;;;5049932;28;20080;-79
2023/09/29 09:30:05;;;;;;;4.43;2.72;;;20.60;99.90;;;;;;5053211;28;20080;-78
2023/09/29 09:32:31;;;;;;;6.60;3.45;;;20.70;99.90;;;;;;5053888;28;20038;-79
2023/09/29 09:34:58;;;;;;;7.22;3.22;;;20.90;99.90;;;;;;5036138;28;20037;-78
2023/09/29 09:37:32;;;;;;;6.80;2.75;;;21.00;99.90;;;;;;5030496;28;20037;-79
2023/09/29 09:39:59;;;;;;;6.70;2.95;;;21.10;99.90;;;;;;5054959;28;20052;-79
2023/09/29 09:42:26;;;;;;;8.55;3.15;;;21.10;99.90;;;;;;5048622;28;20488;-78
2023/09/29 09:44:58;;;;;;;6.60;2.80;;;21.00;99.90;;;;;;5043122;28;20124;-78
2023/09/29 09:47:25;;;;;;;6.30;3.35;;;21.00;99.90;;;;;;5050024;28;20491;-79
2023/09/29 09:49:55;;;;;;;7.82;3.38;;;20.90;99.90;;;;;;5051105;28;20395;-79
2023/09/29 09:52:29;;;;;;;6.88;3.00;;;21.00;99.90;;;;;;5045800;28;20041;-78
2023/09/29 09:55:04;;;;;;;4.63;2.70;;;21.00;99.90;;;;;;5048364;28;20072;-79
2023/09/29 09:57:35;;;;;;;7.30;3.22;;;21.00;99.90;;;;;;5047300;28;20033;-78
2023/09/29 10:00:12;;;;;;;6.35;3.20;;;21.00;99.90;;;;;;5052588;28;20108;-79
2023/09/29 10:02:45;;;;;;;8.10;3.10;;;21.10;99.90;;;;;;5052232;28;20100;-80
2023/09/29 10:05:22;;;;;;;7.80;3.53;;;21.10;99.90;;;;;;5042140;28;20054;-79
2023/09/29 10:08:05;;;;;;;6.75;3.20;;;21.20;99.90;;;;;;5047089;28;20068;-78
2023/09/29 10:10:38;;;;;;;7.32;3.60;;;21.20;99.90;;;;;;5050598;28;20058;-79
2023/09/29 10:13:06;;;;;;;6.78;3.20;;;21.20;99.90;;;;;;5026633;28;20029;-79
2023/09/29 10:15:33;;;;;;;7.53;3.13;;;21.30;99.90;;;;;;5049407;28;20037;-78
2023/09/29 10:17:59;;;;;;;8.43;3.72;;;21.20;99.90;;;;;;5049863;28;20563;-78
2023/09/29 10:20:26;;;;;;;7.45;3.58;;;21.40;99.90;;;;;;5053886;28;20037;-80
2023/09/29 10:23:06;;;;;;;6.00;3.28;;;21.40;99.90;;;;;;5052237;28;20044;-79
2023/09/29 10:25:35;;;;;;;9.02;3.58;;;21.50;99.90;;;;;;5054304;28;20057;-79
2023/09/29 10:28:05;;;;;;;6.10;3.35;;;21.50;99.90;;;;;;5048626;28;20041;-79
2023/09/29 10:30:30;;;;;;;6.72;3.33;;;21.60;99.90;;;;;;5052416;28;20056;-79
2023/09/29 10:33:07;;;;;;;7.88;4.18;;;21.40;99.90;;;;;;5050622;28;20037;-79
2023/09/29 10:35:34;;;;;;;6.35;3.53;;;21.30;99.90;;;;;;5046071;28;20471;-78
2023/09/29 10:38:07;;;;;;;7.22;3.70;;;21.10;99.90;;;;;;5056115;28;20110;-79
2023/09/29 10:40:33;;;;;;;6.13;3.80;;;21.00;99.90;;;;;;5057193;28;20036;-80
2023/09/29 10:43:02;;;;;;;6.82;3.85;;;20.80;99.90;;;;;;5055576;28;20045;-79
2023/09/29 10:45:31;;;;;;;7.45;3.90;;;20.70;99.90;;;;;;5055078;28;20514;-79
2023/09/29 10:48:01;;;;;;;8.90;4.10;;;20.60;99.90;;;;;;5047822;28;20049;-79
2023/09/29 10:50:28;;;;;;;9.90;4.63;;;20.50;99.90;;;;;;5051574;28;20072;-78
2023/09/29 10:52:54;;;;;;;8.07;3.85;;;20.40;99.90;;;;;;5052050;28;20120;-79
2023/09/29 10:55:19;;;;;;;6.03;4.03;;;20.40;99.90;;;;;;5054213;28;20782;-78
2023/09/29 10:57:45;;;;;;;8.93;3.90;;;20.40;99.90;;;;;;5052235;28;20110;-79
2023/09/29 11:00:11;;;;;;;7.47;4.05;;;20.50;99.90;;;;;;5053934;28;20033;-79
2023/09/29 11:02:37;;;;;;;7.50;3.92;;;20.70;99.90;;;;;;5038002;28;20499;-78
2023/09/29 11:05:06;;;;;;;7.75;3.85;;;20.80;99.90;;;;;;5053428;28;20048;-79
2023/09/29 11:07:51;;;;;;;8.38;3.85;;;20.80;99.90;;;;;;5055699;28;20047;-78
2023/09/29 11:10:18;;;;;;;6.30;3.95;;;20.80;99.90;;;;;;5055222;28;20083;-79
2023/09/29 11:12:46;;;;;;;14.00;4.55;;;20.70;99.90;;;;;;5038236;28;20532;-79
2023/09/29 11:15:13;;;;;;;6.65;4.32;;;20.70;99.90;;;;;;5053383;28;20037;-80
2023/09/29 11:17:46;;;;;;;8.85;4.32;;;20.60;99.90;;;;;;5050498;28;20073;-79
2023/09/29 11:20:24;;;;;;;9.13;4.40;;;20.70;99.90;;;;;;5065022;28;20112;-78
2023/09/29 11:22:59;;;;;;;7.07;4.28;;;20.70;99.90;;;;;;5032044;28;20045;-79
2023/09/29 11:25:25;;;;;;;13.70;4.50;;;20.70;99.90;;;;;;5046540;28;20068;-79
2023/09/29 11:27:51;;;;;;;7.30;4.30;;;20.60;99.90;;;;;;5053590;28;20442;-78
2023/09/29 11:30:20;;;;;;;7.20;4.00;;;20.60;99.90;;;;;;5050312;28;20041;-78
2023/09/29 11:32:46;;;;;;;8.98;4.60;;;20.50;99.90;;;;;;5049993;28;20044;-79
2023/09/29 11:35:13;;;;;;;10.38;4.85;;;20.50;99.90;;;;;;5061759;28;20507;-78
2023/09/29 11:37:42;;;;;;;11.63;4.53;;;20.40;99.90;;;;;;5051777;28;20128;-79
2023/09/29 11:40:11;;;;;;;11.93;4.70;;;20.40;99.90;;;;;;5052215;28;20140;-78
2023/09/29 11:42:38;;;;;;;8.90;4.28;;;20.30;99.90;;;;;;5049171;28;20407;-78
2023/09/29 11:45:08;;;;;;;15.43;5.10;;;20.30;99.90;;;;;;5046458;28;20082;-81
2023/09/29 11:47:39;;;;;;;7.93;4.45;;;20.20;99.90;;;;;;5050523;28;20098;-78
2023/09/29 11:50:05;;;;;;;7.35;4.68;;;20.20;99.90;;;;;;5032286;28;20082;-78
2023/09/29 11:52:32;;;;;;;8.43;4.82;;;20.30;99.90;;;;;;5042652;28;20116;-78
2023/09/29 11:54:58;;;;;;;9.20;4.85;;;20.30;99.90;;;;;;5043524;28;20040;-78
2023/09/29 11:57:24;;;;;;;9.30;4.75;;;20.30;99.90;;;;;;5037144;28;20040;-78
2023/09/29 11:59:49;;;;;;;9.90;4.57;;;20.30;99.90;;;;;;5053021;28;20042;-78
2023/09/29 12:02:15;;;;;;;14.18;5.43;;;20.30;99.90;;;;;;5051551;28;20049;-79
2023/09/29 12:04:40;;;;;;;9.82;5.03;;;20.20;99.90;;;;;;5044677;28;20041;-79
2023/09/29 12:07:06;;;;;;;9.10;5.05;;;20.20;99.90;;;;;;5054145;28;20049;-79
2023/09/29 12:09:31;;;;;;;10.20;5.63;;;20.20;99.90;;;;;;5054277;28;20104;-80
2023/09/29 12:12:00;;;;;;;8.10;5.13;;;20.20;99.90;;;;;;5049083;28;20108;-79
2023/09/29 12:14:26;;;;;;;10.20;5.32;;;20.10;99.90;;;;;;5045079;28;20094;-80
2023/09/29 12:16:53;;;;;;;9.98;5.28;;;20.10;99.90;;;;;;5053299;28;20041;-79
2023/09/29 12:19:20;;;;;;;10.50;5.75;;;20.10;99.90;;;;;;5052007;28;20029;-80
2023/09/29 12:21:47;;;;;;;12.85;6.05;;;20.10;99.90;;;;;;5047822;28;20093;-78
2023/09/29 12:24:14;;;;;;;3.83;1.88;;;20.10;99.90;;;;;;5048552;28;20094;-80
2023/09/29 12:26:46;;;;;;;2.88;0.90;;;19.60;99.90;;;;;;5049222;28;20041;-79
2023/09/29 12:29:12;;;;;;;1.52;0.80;;;19.20;99.90;;;;;;5029136;28;20247;-80
2023/09/29 12:31:37;;;;;;;1.98;0.90;;;18.90;99.90;;;;;;5042944;28;20041;-80
2023/09/29 12:34:04;;;;;;;1.55;0.68;;;18.50;99.90;;;;;;5042870;28;20051;-80
2023/09/29 12:36:30;;;;;;;1.95;0.80;;;18.30;99.90;;;;;;5049200;28;20037;-79
2023/09/29 12:38:55;;;;;;;3.60;0.80;;;18.10;99.90;;;;;;5048903;28;20499;-79